Time;durP1;ratioP1;P1;durP2;ratioP2;P2;SDS_P1;SDS_P2;PMS_P1;PMS_P2;Temp;Humidity;BMP_temperature;BMP_pressure;BME280_temperature;BME280_humidity;BME280_pressure;Samples;Min_cycle;Max_cycle;Signal;HPM_P1;HPM_P2
2022/07/26 00:01:52;;;;;;;17.52;13.32;;;;;;;21.12;87.53;92338.53;5032200;28;20047;-76
2022/07/26 00:04:18;;;;;;;21.75;13.23;;;;;;;21.20;87.77;92334.88;5049808;28;20475;-76
2022/07/26 00:06:43;;;;;;;19.55;13.18;;;;;;;21.15;87.08;92332.53;5020410;28;20410;-76
2022/07/26 00:09:09;;;;;;;17.83;13.35;;;;;;;21.11;86.83;92329.78;5053208;28;20028;-75
2022/07/26 00:11:34;;;;;;;17.02;12.85;;;;;;;21.09;86.94;92339.25;5039556;28;20453;-76
2022/07/26 00:14:05;;;;;;;16.85;13.20;;;;;;;21.03;87.22;92338.00;5053371;28;20051;-76
2022/07/26 00:16:31;;;;;;;18.92;14.48;;;;;;;21.02;87.41;92333.81;5079284;28;20025;-76
2022/07/26 00:18:57;;;;;;;15.50;12.82;;;;;;;20.99;86.71;92330.75;5054721;28;20047;-76
2022/07/26 00:21:23;;;;;;;15.50;12.75;;;;;;;20.97;87.01;92333.00;5039091;28;20047;-76
2022/07/26 00:23:49;;;;;;;18.25;13.43;;;;;;;20.95;86.85;92329.91;5055452;28;20047;-76
2022/07/26 00:26:15;;;;;;;17.17;12.98;;;;;;;20.94;86.48;92330.25;5072866;28;20024;-76
2022/07/26 00:28:41;;;;;;;17.05;12.48;;;;;;;20.97;85.46;92327.66;5054607;28;20040;-76
2022/07/26 00:31:07;;;;;;;17.23;11.73;;;;;;;20.98;84.67;92325.78;5071642;28;20280;-76
2022/07/26 00:33:33;;;;;;;16.42;11.65;;;;;;;20.98;84.72;92326.56;5073140;28;20024;-76
2022/07/26 00:35:59;;;;;;;18.00;11.20;;;;;;;20.96;84.25;92322.69;5055213;28;20222;-75
2022/07/26 00:38:25;;;;;;;16.15;11.68;;;;;;;20.92;84.22;92324.56;5059637;28;20044;-76
2022/07/26 00:40:50;;;;;;;16.38;11.10;;;;;;;20.88;84.03;92315.72;5035319;28;20029;-76
2022/07/26 00:43:16;;;;;;;14.95;11.60;;;;;;;20.83;83.95;92316.78;5035132;28;20483;-76
2022/07/26 00:45:41;;;;;;;16.85;11.15;;;;;;;20.77;84.31;92313.63;5051794;28;20487;-76
2022/07/26 00:48:07;;;;;;;17.25;11.38;;;;;;;20.73;84.10;92315.47;5034491;28;20032;-76
2022/07/26 00:50:33;;;;;;;22.88;10.80;;;;;;;20.71;84.17;92314.28;5034994;28;20041;-76
2022/07/26 00:52:59;;;;;;;16.83;10.80;;;;;;;20.67;84.03;92316.09;5034852;28;20399;-76
2022/07/26 00:55:25;;;;;;;13.18;10.32;;;;;;;20.64;83.56;92319.47;5051364;28;20090;-76
2022/07/26 00:57:51;;;;;;;15.85;10.20;;;;;;;20.63;82.97;92315.28;5063323;28;20353;-76
2022/07/26 01:00:22;;;;;;;15.55;9.38;;;;;;;20.58;81.96;92319.78;5071018;28;20037;-76
2022/07/26 01:02:48;;;;;;;14.13;9.55;;;;;;;20.64;81.43;92316.81;5072971;28;20111;-76
2022/07/26 01:05:15;;;;;;;13.85;9.43;;;;;;;20.56;81.24;92314.03;5072379;28;20031;-75
2022/07/26 01:07:41;;;;;;;11.82;9.02;;;;;;;20.52;80.52;92315.81;5070973;28;20111;-76
2022/07/26 01:10:11;;;;;;;12.65;8.88;;;;;;;20.52;79.87;92318.50;5072248;28;20501;-76
2022/07/26 01:12:41;;;;;;;11.95;8.68;;;;;;;20.47;79.14;92304.72;5050837;28;20509;-75
2022/07/26 01:15:08;;;;;;;13.98;9.00;;;;;;;20.43;79.16;92303.88;5034264;28;20507;-76
2022/07/26 01:17:34;;;;;;;16.52;8.73;;;;;;;20.37;78.87;92306.03;5052319;28;20426;-76
2022/07/26 01:19:59;;;;;;;9.85;7.90;;;;;;;20.34;78.37;92294.22;5052006;28;20048;-76
2022/07/26 01:22:25;;;;;;;13.38;8.25;;;;;;;20.30;78.79;92301.34;5033946;28;20037;-76
2022/07/26 01:24:50;;;;;;;13.38;9.10;;;;;;;20.28;78.65;92290.31;5051032;28;20429;-76
2022/07/26 01:27:16;;;;;;;11.82;8.07;;;;;;;20.31;77.76;92296.81;5017783;28;20460;-76
2022/07/26 01:29:42;;;;;;;11.00;7.72;;;;;;;20.31;76.37;92286.16;5034482;28;20045;-76
2022/07/26 01:32:07;;;;;;;11.70;7.35;;;;;;;20.34;75.72;92291.56;5051898;28;20025;-76
2022/07/26 01:34:33;;;;;;;11.98;7.93;;;;;;;20.37;75.09;92290.09;5050372;28;20048;-76
2022/07/26 01:36:59;;;;;;;11.00;7.53;;;;;;;20.36;75.60;92288.56;5070474;28;20056;-76
2022/07/26 01:39:24;;;;;;;11.13;7.15;;;;;;;20.36;75.40;92294.66;5053374;28;20981;-76
2022/07/26 01:41:50;;;;;;;12.77;7.43;;;;;;;20.35;74.87;92295.00;5053901;28;20045;-75
2022/07/26 01:44:16;;;;;;;10.07;7.35;;;;;;;20.37;74.46;92292.75;5071798;28;20099;-76
2022/07/26 01:46:41;;;;;;;12.93;7.68;;;;;;;20.47;71.86;92300.16;5051565;28;20031;-76
2022/07/26 01:49:07;;;;;;;12.68;7.18;;;;;;;20.56;71.69;92300.75;5071442;28;20037;-75
2022/07/26 01:51:34;;;;;;;13.02;7.20;;;;;;;20.67;70.92;92292.97;5070964;28;20129;-76
2022/07/26 01:54:01;;;;;;;11.43;7.38;;;;;;;20.78;70.25;92293.91;5071471;28;20116;-76
2022/07/26 01:56:26;;;;;;;14.32;8.05;;;;;;;20.86;70.09;92304.69;5053445;28;20469;-76
2022/07/26 01:58:52;;;;;;;14.07;7.68;;;;;;;20.99;70.26;92292.75;5040970;28;20398;-76
2022/07/26 02:01:18;;;;;;;13.75;7.88;;;;;;;21.04;70.09;92299.66;5051457;28;20372;-76
2022/07/26 02:03:43;;;;;;;15.43;8.52;;;;;;;21.07;70.10;92291.72;5065412;28;20505;-76
2022/07/26 02:06:09;;;;;;;11.75;7.90;;;;;;;21.13;70.18;92290.28;5071100;28;20037;-76
2022/07/26 02:08:34;;;;;;;14.50;8.32;;;;;;;21.18;69.73;92283.91;5036865;28;20031;-76
2022/07/26 02:11:00;;;;;;;12.95;8.13;;;;;;;21.20;69.67;92277.09;5052557;28;20111;-76
2022/07/26 02:13:39;;;;;;;13.60;8.48;;;;;;;21.25;70.02;92283.25;5070999;28;20434;-76
2022/07/26 02:16:08;;;;;;;13.85;8.05;;;;;;;21.24;70.19;92292.38;5070826;28;20478;-76
2022/07/26 02:18:34;;;;;;;11.20;8.15;;;;;;;21.21;69.97;92283.22;5056568;28;20405;-76
2022/07/26 02:21:00;;;;;;;13.52;7.60;;;;;;;21.25;69.18;92278.69;5073172;28;20028;-76
2022/07/26 02:23:27;;;;;;;11.07;7.25;;;;;;;21.27;68.26;92281.00;5064642;28;20037;-76
2022/07/26 02:25:54;;;;;;;12.77;8.30;;;;;;;21.24;68.41;92276.41;5036513;28;20025;-76
2022/07/26 02:28:19;;;;;;;12.00;7.20;;;;;;;21.43;66.01;92271.00;5034789;28;20067;-76
2022/07/26 02:30:46;;;;;;;12.30;8.05;;;;;;;21.41;66.44;92263.38;5052610;28;20028;-76
2022/07/26 02:33:12;;;;;;;10.70;7.65;;;;;;;21.56;65.75;92255.56;5069821;28;20417;-76
2022/07/26 02:35:37;;;;;;;12.02;7.22;;;;;;;21.56;65.95;92260.91;5069104;28;20368;-76
2022/07/26 02:38:05;;;;;;;10.90;7.32;;;;;;;21.59;64.87;92260.97;5070846;28;20040;-75
2022/07/26 02:40:32;;;;;;;12.73;7.30;;;;;;;21.63;64.55;92258.34;5061896;28;20391;-76
2022/07/26 02:42:58;;;;;;;10.23;7.05;;;;;;;21.63;64.65;92255.66;5033059;28;20048;-76
2022/07/26 02:45:24;;;;;;;8.52;6.18;;;;;;;21.83;62.38;92259.75;5032776;28;20029;-76
2022/07/26 02:47:52;;;;;;;10.45;6.88;;;;;;;21.73;63.44;92257.72;5032832;28;20036;-76
2022/07/26 02:50:20;;;;;;;15.40;6.70;;;;;;;21.65;63.56;92253.41;5069114;28;20082;-76
2022/07/26 02:52:47;;;;;;;15.23;6.88;;;;;;;21.60;63.99;92251.06;5068925;28;20420;-76
2022/07/26 02:55:18;;;;;;;8.88;6.72;;;;;;;21.57;64.28;92246.44;5070460;28;20406;-76
2022/07/26 02:57:43;;;;;;;12.15;7.40;;;;;;;21.51;64.94;92240.69;5052758;28;20032;-75
2022/07/26 03:00:11;;;;;;;11.68;6.88;;;;;;;21.46;64.43;92241.00;5070396;28;20253;-76
2022/07/26 03:02:37;;;;;;;10.05;6.47;;;;;;;21.45;63.40;92242.13;5070313;28;20436;-76
2022/07/26 03:05:04;;;;;;;12.35;6.82;;;;;;;21.44;63.13;92245.91;5050263;28;20077;-76
2022/07/26 03:07:30;;;;;;;10.93;6.75;;;;;;;21.42;65.23;92238.28;5032322;28;20037;-76
2022/07/26 03:09:56;;;;;;;12.13;6.80;;;;;;;21.36;64.73;92244.25;5028665;28;20089;-76
2022/07/26 03:12:21;;;;;;;11.02;7.10;;;;;;;21.29;65.55;92247.56;5068448;28;20028;-76
2022/07/26 03:14:47;;;;;;;13.70;7.20;;;;;;;21.21;66.43;92237.97;5050426;28;20036;-76
2022/07/26 03:17:12;;;;;;;14.38;6.32;;;;;;;21.15;66.55;92231.41;5068837;28;20397;-76
2022/07/26 03:19:38;;;;;;;9.75;7.03;;;;;;;21.08;66.46;92232.06;5052446;28;20045;-76
2022/07/26 03:22:04;;;;;;;8.88;6.05;;;;;;;21.15;62.70;92232.16;5052430;28;20127;-76
2022/07/26 03:24:29;;;;;;;8.90;5.80;;;;;;;21.16;62.35;92232.91;5070192;28;20028;-76
2022/07/26 03:26:55;;;;;;;8.68;5.70;;;;;;;21.18;61.89;92222.69;5050808;28;20029;-76
2022/07/26 03:29:20;;;;;;;9.18;6.15;;;;;;;21.21;62.17;92233.41;5070787;28;20044;-76
2022/07/26 03:31:46;;;;;;;10.00;5.50;;;;;;;21.23;62.15;92235.69;5051419;28;20105;-76
2022/07/26 03:34:12;;;;;;;8.68;5.70;;;;;;;21.24;61.08;92234.56;5070293;28;20037;-76
2022/07/26 03:36:38;;;;;;;8.73;5.63;;;;;;;21.33;59.27;92235.06;5070226;28;20073;-76
2022/07/26 03:39:03;;;;;;;11.90;5.55;;;;;;;21.41;58.83;92234.09;5067746;28;20386;-76
2022/07/26 03:41:30;;;;;;;10.30;5.43;;;;;;;21.41;59.15;92234.09;5070022;28;20041;-76
2022/07/26 03:43:56;;;;;;;7.57;4.82;;;;;;;21.42;58.74;92246.25;5053081;28;20135;-76
2022/07/26 03:46:22;;;;;;;9.82;4.63;;;;;;;21.49;56.82;92244.84;5055988;28;20131;-76
2022/07/26 03:48:48;;;;;;;6.95;4.88;;;;;;;21.49;56.92;92242.19;5055062;28;20394;-76
2022/07/26 03:51:13;;;;;;;8.45;4.93;;;;;;;21.47;57.20;92244.41;5054204;28;20052;-76
2022/07/26 03:53:39;;;;;;;8.48;5.20;;;;;;;21.44;57.43;92247.81;5055744;28;20056;-76
2022/07/26 03:58:49;;;;;;;7.80;4.95;;;;;;;21.41;56.98;92250.06;5073820;28;20398;-76
2022/07/26 04:01:14;;;;;;;8.10;4.90;;;;;;;21.38;56.79;92239.31;5055895;28;20036;-76
2022/07/26 04:03:40;;;;;;;8.25;4.68;;;;;;;21.39;56.09;92238.97;5050053;28;20032;-76
2022/07/26 04:06:06;;;;;;;9.25;5.07;;;;;;;21.34;57.12;92249.91;5053843;28;20120;-76
2022/07/26 04:08:31;;;;;;;9.52;4.95;;;;;;;21.27;58.29;92249.81;5050594;28;20044;-76
2022/07/26 04:10:57;;;;;;;9.07;4.90;;;;;;;21.18;59.48;92249.31;5073541;28;20036;-76
2022/07/26 04:13:22;;;;;;;8.07;4.38;;;;;;;21.09;60.00;92254.88;5070965;28;20082;-76
2022/07/26 04:15:48;;;;;;;6.38;4.60;;;;;;;21.03;59.74;92250.19;5048123;28;20068;-78
2022/07/26 04:18:14;;;;;;;10.25;4.22;;;;;;;21.06;57.58;92249.50;5059034;28;20036;-80
2022/07/26 04:20:40;;;;;;;8.52;4.55;;;;;;;21.09;56.88;92244.22;5074732;28;20043;-80
2022/07/26 04:23:06;;;;;;;8.15;4.30;;;;;;;21.11;57.56;92241.22;5036451;28;20041;-80
2022/07/26 04:25:33;;;;;;;7.53;4.90;;;;;;;21.11;57.99;92235.88;5037294;28;20032;-80
2022/07/26 04:27:59;;;;;;;8.02;4.85;;;;;;;21.09;58.92;92248.78;5056828;28;20161;-80
2022/07/26 04:30:25;;;;;;;6.55;4.45;;;;;;;21.05;60.29;92246.06;5076244;28;20047;-80
2022/07/26 04:32:51;;;;;;;9.85;4.60;;;;;;;21.05;58.60;92254.03;5034761;28;20398;-79
2022/07/26 04:35:16;;;;;;;7.60;4.30;;;;;;;21.07;58.53;92240.38;5056919;28;20024;-80
2022/07/26 04:37:43;;;;;;;6.20;4.13;;;;;;;21.14;58.12;92245.81;5064218;28;20201;-79
2022/07/26 04:40:10;;;;;;;8.75;4.50;;;;;;;21.20;58.00;92239.06;5075192;28;20410;-79
2022/07/26 04:42:36;;;;;;;11.20;4.68;;;;;;;21.17;59.88;92247.78;5070041;28;20036;-79
2022/07/26 04:45:03;;;;;;;8.00;4.65;;;;;;;21.15;60.51;92242.03;5074508;28;20044;-79
2022/07/26 04:47:29;;;;;;;6.50;4.53;;;;;;;21.10;60.63;92251.09;5069753;28;20020;-79
2022/07/26 04:49:55;;;;;;;6.38;4.60;;;;;;;21.08;60.32;92247.25;5053094;28;20367;-80
2022/07/26 04:52:20;;;;;;;8.13;4.55;;;;;;;21.08;60.65;92248.03;5035542;28;20483;-80
2022/07/26 04:54:46;;;;;;;6.63;4.43;;;;;;;21.09;60.96;92249.53;5037252;28;20037;-80
2022/07/26 04:57:12;;;;;;;8.13;4.72;;;;;;;21.11;61.17;92251.84;5040811;28;20061;-79
2022/07/26 04:59:37;;;;;;;9.25;4.80;;;;;;;21.14;61.61;92245.81;5055871;28;20036;-79
2022/07/26 05:02:03;;;;;;;9.10;4.90;;;;;;;21.15;61.43;92256.13;5068502;28;20154;-80
2022/07/26 05:04:29;;;;;;;7.85;4.55;;;;;;;21.20;59.12;92244.38;5052503;28;20024;-79
2022/07/26 05:07:01;;;;;;;12.20;4.53;;;;;;;21.29;60.53;92247.56;5074097;28;20029;-79
2022/07/26 05:09:28;;;;;;;9.65;4.32;;;;;;;21.34;60.85;92247.25;5069940;28;20040;-80
2022/07/26 05:11:53;;;;;;;7.65;4.43;;;;;;;21.41;58.85;92244.75;5056000;28;20040;-80
2022/07/26 05:14:19;;;;;;;10.45;4.20;;;;;;;21.50;57.17;92246.34;5064306;28;20060;-80
2022/07/26 05:16:44;;;;;;;6.57;4.43;;;;;;;21.62;57.25;92243.50;5037207;28;20049;-80
2022/07/26 05:19:10;;;;;;;5.75;4.00;;;;;;;21.73;57.11;92249.72;5062963;28;20031;-80
2022/07/26 05:21:35;;;;;;;6.97;4.10;;;;;;;21.79;57.05;92253.59;5071243;28;20044;-82
2022/07/26 05:24:01;;;;;;;7.22;4.78;;;;;;;21.88;57.51;92250.66;5035163;28;20041;-78
2022/07/26 05:26:26;;;;;;;8.07;4.75;;;;;;;21.92;59.91;92256.81;5037197;28;20021;-78
2022/07/26 05:28:53;;;;;;;7.93;4.57;;;;;;;21.93;59.10;92254.91;5074177;28;20593;-79
2022/07/26 05:31:18;;;;;;;8.20;5.20;;;;;;;21.97;59.63;92259.16;5074314;28;20043;-79
2022/07/26 05:33:44;;;;;;;12.82;5.70;;;;;;;22.01;59.83;92261.88;5056506;28;20432;-79
2022/07/26 05:36:10;;;;;;;9.43;5.43;;;;;;;22.06;60.04;92253.53;5058224;28;20033;-79
2022/07/26 05:38:36;;;;;;;11.70;4.90;;;;;;;22.09;60.15;92244.84;5054182;28;20037;-79
2022/07/26 05:41:02;;;;;;;10.30;4.78;;;;;;;22.13;59.95;92250.94;5054094;28;20074;-79
2022/07/26 05:43:28;;;;;;;8.07;4.30;;;;;;;22.20;59.25;92250.25;5053637;28;20473;-79
2022/07/26 05:45:55;;;;;;;8.57;5.15;;;;;;;22.31;60.65;92256.50;5057577;28;20117;-79
2022/07/26 05:48:21;;;;;;;9.45;5.40;;;;;;;22.43;63.73;92252.84;5053949;28;20490;-79
2022/07/26 05:50:46;;;;;;;7.18;4.68;;;;;;;22.49;61.77;92254.03;5019710;28;20037;-79
2022/07/26 05:53:12;;;;;;;6.35;4.57;;;;;;;22.58;62.15;92249.16;5032650;28;20144;-79
2022/07/26 05:55:37;;;;;;;9.68;4.95;;;;;;;22.75;59.49;92263.06;5017139;28;20112;-79
2022/07/26 05:58:03;;;;;;;10.43;6.72;;;;;;;22.86;64.68;92253.25;5032654;28;20112;-79
2022/07/26 06:00:28;;;;;;;13.05;8.10;;;;;;;22.96;67.76;92263.22;5032768;28;20557;-79
2022/07/26 06:02:54;;;;;;;11.05;7.95;;;;;;;23.19;66.68;92256.97;5033941;28;20570;-79
2022/07/26 06:05:20;;;;;;;12.18;6.55;;;;;;;24.03;63.22;92262.47;5016356;28;20080;-79
2022/07/26 06:07:45;;;;;;;8.85;5.80;;;;;;;24.81;59.79;92261.94;5012234;28;20140;-80
2022/07/26 06:10:11;;;;;;;9.35;6.47;;;;;;;25.40;59.37;92264.31;5050470;28;20124;-80
2022/07/26 06:12:37;;;;;;;13.27;7.75;;;;;;;26.00;59.14;92267.28;5041993;28;20029;-80
2022/07/26 06:15:03;;;;;;;15.68;8.55;;;;;;;26.30;57.59;92264.09;5033261;28;20063;-80
2022/07/26 06:17:29;;;;;;;9.68;7.20;;;;;;;26.76;55.79;92263.88;5039613;28;20407;-80
2022/07/26 06:19:56;;;;;;;9.43;7.22;;;;;;;27.27;55.75;92274.31;5069014;28;20033;-80
2022/07/26 06:22:22;;;;;;;9.68;6.15;;;;;;;27.78;52.37;92276.16;5051900;28;20029;-80
2022/07/26 06:24:48;;;;;;;8.15;4.90;;;;;;;28.23;47.06;92267.25;5049269;28;20086;-80
2022/07/26 06:27:13;;;;;;;11.00;5.55;;;;;;;28.65;44.40;92266.00;5040023;28;20029;-80
2022/07/26 06:29:39;;;;;;;8.50;4.95;;;;;;;29.06;43.91;92266.97;5047185;28;20047;-80
2022/07/26 06:32:05;;;;;;;10.48;6.55;;;;;;;29.44;46.61;92272.19;5052973;28;20110;-81
2022/07/26 06:34:31;;;;;;;13.32;9.43;;;;;;;29.26;51.93;92275.94;5052940;28;20070;-79
2022/07/26 06:36:57;;;;;;;11.77;9.48;;;;;;;28.77;53.44;92277.38;5051720;28;20093;-81
2022/07/26 06:39:23;;;;;;;16.58;9.65;;;;;;;28.56;54.29;92276.50;5049198;28;20049;-81
2022/07/26 06:41:48;;;;;;;11.25;8.23;;;;;;;28.14;54.11;92272.38;5053816;28;20033;-81
2022/07/26 06:44:21;;;;;;;17.48;7.57;;;;;;;27.79;53.17;92268.88;5055027;28;20037;-80
2022/07/26 06:46:47;;;;;;;14.95;7.22;;;;;;;27.85;53.28;92274.59;5056037;28;20033;-82
2022/07/26 06:49:12;;;;;;;15.27;8.20;;;;;;;27.76;54.98;92266.97;5047410;28;20029;-83
2022/07/26 06:51:38;;;;;;;13.82;8.05;;;;;;;27.43;56.75;92265.75;5034747;28;20041;-82
2022/07/26 06:54:04;;;;;;;13.13;9.23;;;;;;;27.01;58.49;92262.97;5062311;28;20109;-82
2022/07/26 06:56:31;;;;;;;12.60;8.95;;;;;;;26.63;60.48;92276.22;5076456;28;20043;-82
2022/07/26 06:58:56;;;;;;;12.90;9.75;;;;;;;26.54;60.97;92273.19;5067244;28;20092;-82
2022/07/26 07:01:22;;;;;;;10.35;8.35;;;;;;;26.31;60.40;92266.38;5072610;28;20063;-82
2022/07/26 07:03:47;;;;;;;13.40;8.88;;;;;;;26.56;61.01;92277.03;5040274;28;20068;-82
2022/07/26 07:06:13;;;;;;;14.63;9.38;;;;;;;26.94;58.65;92268.38;5055076;28;20032;-82
2022/07/26 07:08:39;;;;;;;15.35;9.60;;;;;;;26.70;61.04;92262.75;5036529;28;20060;-82
2022/07/26 07:11:04;;;;;;;18.23;10.18;;;;;;;26.71;61.61;92267.00;5043716;28;20536;-81
2022/07/26 07:13:30;;;;;;;16.55;10.00;;;;;;;26.63;62.14;92268.19;5045981;28;20050;-82
2022/07/26 07:15:55;;;;;;;15.82;9.85;;;;;;;26.26;62.35;92272.16;5035767;28;20498;-83
2022/07/26 07:18:21;;;;;;;16.48;10.02;;;;;;;26.11;63.67;92262.63;5054914;28;20228;-81
2022/07/26 07:20:47;;;;;;;13.80;9.27;;;;;;;26.36;63.48;92267.91;5069459;28;20039;-82
2022/07/26 07:23:12;;;;;;;13.52;8.85;;;;;;;26.49;62.95;92271.69;5074446;28;20081;-83
2022/07/26 07:25:38;;;;;;;14.45;9.43;;;;;;;26.23;61.30;92267.59;5055991;28;20027;-82
2022/07/26 07:28:04;;;;;;;14.48;9.30;;;;;;;25.93;62.47;92268.81;5058237;28;20473;-83
2022/07/26 07:30:29;;;;;;;19.33;8.90;;;;;;;25.99;62.42;92271.13;5068230;28;20600;-82
2022/07/26 07:32:55;;;;;;;11.80;8.77;;;;;;;26.01;61.98;92263.44;5053324;28;20109;-82
2022/07/26 07:35:20;;;;;;;16.85;9.30;;;;;;;25.88;61.51;92271.13;5053479;28;20115;-82
2022/07/26 07:37:46;;;;;;;16.52;8.73;;;;;;;25.93;61.94;92273.41;5053445;28;20044;-82
2022/07/26 07:40:12;;;;;;;13.18;9.07;;;;;;;25.85;62.32;92261.16;5053393;28;20491;-82
2022/07/26 07:42:38;;;;;;;11.98;8.93;;;;;;;26.01;63.02;92266.09;5035999;28;20286;-82
2022/07/26 07:45:04;;;;;;;12.88;9.02;;;;;;;26.08;62.23;92258.06;5035377;28;20064;-81
2022/07/26 07:47:33;;;;;;;12.82;8.73;;;;;;;26.03;61.12;92263.81;5019011;28;20085;-81
2022/07/26 07:49:59;;;;;;;16.83;8.52;;;;;;;25.99;60.51;92263.06;5035145;28;20525;-81
2022/07/26 07:52:24;;;;;;;16.33;8.15;;;;;;;25.99;59.99;92265.75;5054555;28;20037;-81
2022/07/26 07:54:50;;;;;;;13.38;8.93;;;;;;;25.96;60.76;92261.91;5053085;28;20043;-81
2022/07/26 07:57:15;;;;;;;12.77;8.45;;;;;;;26.12;61.20;92264.16;5034715;28;20049;-81
2022/07/26 07:59:41;;;;;;;12.90;8.10;;;;;;;26.04;61.26;92258.06;5019036;28;20506;-82
2022/07/26 08:02:08;;;;;;;14.18;9.02;;;;;;;26.11;61.55;92268.00;5035906;28;20045;-81
2022/07/26 08:04:34;;;;;;;19.92;9.90;;;;;;;26.11;61.79;92262.63;5034870;28;20402;-81
2022/07/26 08:06:59;;;;;;;14.65;8.23;;;;;;;26.25;60.31;92267.94;5034680;28;20057;-81
2022/07/26 08:09:25;;;;;;;12.15;8.75;;;;;;;26.21;60.97;92269.09;5052594;28;20101;-81
2022/07/26 08:11:50;;;;;;;12.82;7.95;;;;;;;26.27;60.65;92260.28;5018502;28;20510;-81
2022/07/26 08:14:17;;;;;;;13.35;8.32;;;;;;;26.22;58.65;92263.34;5072407;28;20037;-81
2022/07/26 08:16:43;;;;;;;12.32;7.68;;;;;;;26.19;58.57;92261.47;5072740;28;20101;-81
2022/07/26 08:19:09;;;;;;;16.98;8.45;;;;;;;26.29;59.19;92263.31;5040849;28;20050;-81
2022/07/26 08:21:35;;;;;;;13.70;8.38;;;;;;;26.35;60.14;92263.69;5092985;28;20036;-82
2022/07/26 08:24:01;;;;;;;12.10;8.45;;;;;;;26.60;59.14;92266.28;5059297;28;20047;-81
2022/07/26 08:26:26;;;;;;;10.93;7.75;;;;;;;26.77;56.02;92265.44;5037275;28;20043;-81
2022/07/26 08:28:52;;;;;;;13.38;7.38;;;;;;;27.09;57.01;92253.69;5054613;28;20077;-81
2022/07/26 08:31:19;;;;;;;12.15;7.63;;;;;;;27.17;55.74;92254.41;5056335;28;20032;-81
2022/07/26 08:33:46;;;;;;;13.38;7.57;;;;;;;27.16;54.09;92253.66;5074615;28;20030;-81
2022/07/26 08:36:12;;;;;;;15.05;7.63;;;;;;;26.64;55.83;92255.50;5076114;28;20123;-80
2022/07/26 08:38:38;;;;;;;11.48;7.65;;;;;;;26.74;56.33;92247.41;5058486;28;20470;-81
2022/07/26 08:41:03;;;;;;;16.52;8.13;;;;;;;26.67;56.15;92250.13;5057816;28;20036;-81
2022/07/26 08:43:29;;;;;;;12.48;7.90;;;;;;;26.74;56.80;92246.66;5047898;28;20050;-81
2022/07/26 08:46:01;;;;;;;14.65;7.80;;;;;;;26.78;55.88;92248.16;5038389;28;20112;-81
2022/07/26 08:48:27;;;;;;;11.02;7.57;;;;;;;26.87;55.79;92244.28;5071580;28;20500;-81
2022/07/26 08:50:57;;;;;;;12.48;7.18;;;;;;;26.95;55.27;92238.47;5037464;28;20024;-81
2022/07/26 08:53:22;;;;;;;10.55;7.32;;;;;;;26.99;54.15;92246.47;5073325;28;20422;-81
2022/07/26 08:55:48;;;;;;;10.73;7.50;;;;;;;27.04;55.16;92242.59;5061394;28;20036;-79
2022/07/26 08:58:14;;;;;;;11.27;7.47;;;;;;;26.91;54.47;92247.69;5052785;28;20055;-84
2022/07/26 09:00:42;;;;;;;11.80;7.82;;;;;;;26.92;55.04;92244.59;5041264;28;20032;-82
2022/07/26 09:03:23;;;;;;;14.45;7.32;;;;;;;27.03;55.65;92244.53;5072770;28;20028;-81
2022/07/26 09:05:49;;;;;;;9.80;7.20;;;;;;;27.25;53.59;92242.47;5073039;28;20024;-79
2022/07/26 09:08:26;;;;;;;12.55;7.50;;;;;;;27.14;54.60;92245.22;5073041;28;20513;-82
2022/07/26 09:10:52;;;;;;;9.90;7.10;;;;;;;27.12;52.93;92242.16;5038000;28;20566;-82
2022/07/26 09:13:19;;;;;;;11.65;6.72;;;;;;;27.06;53.52;92242.97;5055426;28;20036;-81
2022/07/26 09:15:45;;;;;;;9.50;7.03;;;;;;;27.16;53.83;92242.13;5051906;28;20044;-80
2022/07/26 09:18:28;;;;;;;8.63;6.50;;;;;;;27.20;54.06;92237.50;5055277;28;20059;-81
2022/07/26 09:20:54;;;;;;;10.70;7.75;;;;;;;27.28;53.57;92243.59;5039117;28;20047;-81
2022/07/26 09:23:20;;;;;;;9.10;6.90;;;;;;;27.33;51.12;92245.84;5073867;28;20028;-83
2022/07/26 09:25:46;;;;;;;11.25;6.50;;;;;;;27.48;50.89;92236.50;5068484;28;20033;-79
2022/07/26 09:28:25;;;;;;;10.85;6.97;;;;;;;27.40;52.26;92237.72;5048449;28;20063;-80
2022/07/26 09:30:53;;;;;;;9.10;6.63;;;;;;;27.58;52.82;92243.72;5071965;28;20037;-80
2022/07/26 09:33:18;;;;;;;11.23;6.80;;;;;;;27.39;51.86;92249.66;5074968;28;20033;-81
2022/07/26 09:36:00;;;;;;;10.80;6.55;;;;;;;27.61;52.35;92250.97;5073784;28;20063;-80
2022/07/26 09:38:57;;;;;;;8.50;6.30;;;;;;;27.70;49.40;92242.44;5073485;28;20101;-81
2022/07/26 09:41:33;;;;;;;10.50;6.43;;;;;;;27.81;51.02;92251.19;5070874;28;20048;-80
2022/07/26 09:44:04;;;;;;;11.15;6.50;;;;;;;27.77;50.24;92252.38;5055846;28;20198;-80
2022/07/26 09:46:34;;;;;;;10.40;6.43;;;;;;;27.65;50.98;92250.19;5073761;28;20066;-81
2022/07/26 09:49:17;;;;;;;11.02;6.50;;;;;;;27.50;50.96;92250.31;5066517;28;20044;-80
2022/07/26 09:51:45;;;;;;;7.78;6.20;;;;;;;27.92;50.31;92251.09;5056254;28;20097;-81
2022/07/26 09:54:16;;;;;;;8.68;5.57;;;;;;;27.82;49.48;92249.25;5073087;28;20047;-80
2022/07/26 09:56:49;;;;;;;8.50;5.75;;;;;;;28.05;48.33;92255.94;5060483;28;20075;-81
2022/07/26 09:59:18;;;;;;;9.13;5.78;;;;;;;27.85;47.61;92242.31;5051869;28;20032;-82
2022/07/26 10:01:45;;;;;;;10.68;6.00;;;;;;;28.05;48.81;92251.31;5056636;28;20032;-81
2022/07/26 10:04:11;;;;;;;8.27;5.65;;;;;;;27.91;47.90;92246.88;5074358;28;20037;-81
2022/07/26 10:06:38;;;;;;;10.38;5.65;;;;;;;28.03;46.60;92256.34;5054740;28;20029;-81
2022/07/26 10:09:04;;;;;;;10.38;6.05;;;;;;;28.16;46.95;92253.91;5069384;28;20043;-82
2022/07/26 10:12:03;;;;;;;8.32;6.45;;;;;;;28.20;47.43;92257.31;5022358;28;20095;-82
2022/07/26 10:14:32;;;;;;;10.35;6.03;;;;;;;28.33;46.42;92242.16;5037827;28;20051;-81
2022/07/26 10:17:21;;;;;;;9.05;6.20;;;;;;;28.59;47.17;92245.31;5072919;28;20029;-81
2022/07/26 10:19:46;;;;;;;7.80;5.72;;;;;;;28.45;45.38;92257.00;5037911;28;20140;-81
2022/07/26 10:22:30;;;;;;;9.95;5.47;;;;;;;28.63;45.24;92243.34;5073312;28;20079;-82
2022/07/26 10:25:18;;;;;;;8.25;5.35;;;;;;;28.69;46.40;92252.50;5069595;28;20044;-81
2022/07/26 10:27:53;;;;;;;7.72;5.38;;;;;;;28.92;45.15;92245.66;5071215;28;20032;-81
2022/07/26 10:30:23;;;;;;;7.35;5.13;;;;;;;28.90;42.93;92247.97;5053542;28;20028;-82
2022/07/26 10:33:06;;;;;;;7.38;5.38;;;;;;;28.69;42.81;92249.81;5068451;28;20032;-82
2022/07/26 10:35:39;;;;;;;8.77;5.53;;;;;;;28.54;43.67;92238.47;5046119;28;20127;-82
2022/07/26 10:38:26;;;;;;;7.18;5.22;;;;;;;28.89;43.89;92246.44;5067346;28;20044;-83
2022/07/26 10:41:03;;;;;;;6.80;5.03;;;;;;;29.11;41.42;92242.28;5055351;28;20036;-81
2022/07/26 10:43:29;;;;;;;8.60;5.00;;;;;;;29.00;43.81;92241.66;5036782;28;20086;-82
2022/07/26 10:46:17;;;;;;;7.72;5.40;;;;;;;29.17;42.98;92237.97;5057766;28;20036;-82
2022/07/26 10:49:03;;;;;;;14.05;5.53;;;;;;;28.93;41.60;92239.84;5075064;28;20040;-82
2022/07/26 10:51:35;;;;;;;10.50;5.63;;;;;;;29.01;42.84;92229.72;5060491;28;20047;-82
2022/07/26 10:54:03;;;;;;;7.25;5.20;;;;;;;28.98;41.35;92235.91;5050954;28;20053;-82
2022/07/26 10:56:29;;;;;;;8.63;4.93;;;;;;;28.98;42.57;92231.31;5050744;28;20449;-82
2022/07/26 10:58:55;;;;;;;8.35;5.45;;;;;;;29.10;43.12;92227.31;5050970;28;20049;-81
2022/07/26 11:01:21;;;;;;;7.97;4.97;;;;;;;29.33;41.58;92231.19;5050371;28;20045;-82
2022/07/26 11:03:46;;;;;;;9.30;5.05;;;;;;;29.41;41.53;92232.59;5030982;28;20041;-82
2022/07/26 11:06:14;;;;;;;7.10;5.10;;;;;;;29.38;41.49;92231.47;5033564;28;20352;-81
2022/07/26 11:08:41;;;;;;;7.75;4.75;;;;;;;29.29;39.95;92222.38;5047368;28;20120;-82
2022/07/26 11:11:07;;;;;;;8.10;5.07;;;;;;;29.31;40.94;92222.75;5047975;28;20095;-82
2022/07/26 11:13:35;;;;;;;9.15;4.90;;;;;;;29.42;40.96;92229.47;5038397;28;20033;-82
2022/07/26 11:16:07;;;;;;;7.18;4.95;;;;;;;29.57;39.95;92229.25;5019525;28;20037;-81
2022/07/26 11:18:35;;;;;;;9.70;4.88;;;;;;;29.61;39.51;92211.81;5031240;28;20045;-79
2022/07/26 11:21:15;;;;;;;7.05;4.90;;;;;;;29.67;38.96;92212.84;5032729;28;20124;-79
2022/07/26 11:23:45;;;;;;;8.70;5.20;;;;;;;29.25;38.17;92215.13;5032963;28;20106;-79
2022/07/26 11:26:19;;;;;;;7.60;4.53;;;;;;;29.51;38.96;92207.38;5031368;28;20034;-81
2022/07/26 11:28:59;;;;;;;7.43;4.13;;;;;;;29.75;38.59;92201.97;5045676;28;20399;-83
2022/07/26 11:31:34;;;;;;;7.82;4.43;;;;;;;29.58;37.46;92209.19;5049360;28;20033;-82